sensor_id;sensor_type;location;lat;lon;timestamp;pressure;altitude;pressure_sealevel;temperature
19644;BMP180;9970;-36.854;174.870;2022-08-11T00:01:26;101193.00;;;13.40
19644;BMP180;9970;-36.854;174.870;2022-08-11T00:06:31;101178.00;;;13.30
19644;BMP180;9970;-36.854;174.870;2022-08-11T00:09:12;101174.00;;;13.40
19644;BMP180;9970;-36.854;174.870;2022-08-11T00:11:54;101174.00;;;13.30
19644;BMP180;9970;-36.854;174.870;2022-08-11T00:17:03;101174.00;;;13.30
19644;BMP180;9970;-36.854;174.870;2022-08-11T00:19:38;101174.00;;;13.30
19644;BMP180;9970;-36.854;174.870;2022-08-11T00:22:19;101170.00;;;13.30
19644;BMP180;9970;-36.854;174.870;2022-08-11T00:24:49;101164.00;;;13.30
19644;BMP180;9970;-36.854;174.870;2022-08-11T00:27:33;101157.00;;;13.30
19644;BMP180;9970;-36.854;174.870;2022-08-11T00:30:07;101169.00;;;13.30
19644;BMP180;9970;-36.854;174.870;2022-08-11T00:32:42;101164.00;;;13.30
19644;BMP180;9970;-36.854;174.870;2022-08-11T00:35:17;101162.00;;;13.30
19644;BMP180;9970;-36.854;174.870;2022-08-11T00:37:52;101158.00;;;13.30
19644;BMP180;9970;-36.854;174.870;2022-08-11T00:40:36;101163.00;;;13.30
19644;BMP180;9970;-36.854;174.870;2022-08-11T00:43:31;101161.00;;;13.30
19644;BMP180;9970;-36.854;174.870;2022-08-11T00:49:08;101164.00;;;13.30
19644;BMP180;9970;-36.854;174.870;2022-08-11T00:54:31;101162.00;;;13.30
19644;BMP180;9970;-36.854;174.870;2022-08-11T01:03:15;101147.00;;;13.30
19644;BMP180;9970;-36.854;174.870;2022-08-11T01:05:56;101142.00;;;13.30
19644;BMP180;9970;-36.854;174.870;2022-08-11T01:08:39;101145.00;;;13.30
19644;BMP180;9970;-36.854;174.870;2022-08-11T01:11:17;101141.00;;;13.30
19644;BMP180;9970;-36.854;174.870;2022-08-11T01:19:41;101128.00;;;13.30
19644;BMP180;9970;-36.854;174.870;2022-08-11T01:28:08;101113.00;;;13.30
19644;BMP180;9970;-36.854;174.870;2022-08-11T01:34:02;101117.00;;;13.30
19644;BMP180;9970;-36.854;174.870;2022-08-11T01:36:39;101122.00;;;13.30
19644;BMP180;9970;-36.854;174.870;2022-08-11T01:39:45;101116.00;;;13.20
19644;BMP180;9970;-36.854;174.870;2022-08-11T01:42:29;101115.00;;;13.20
19644;BMP180;9970;-36.854;174.870;2022-08-11T01:45:31;101111.00;;;13.20
19644;BMP180;9970;-36.854;174.870;2022-08-11T01:48:32;101114.00;;;13.10
19644;BMP180;9970;-36.854;174.870;2022-08-11T01:51:30;101102.00;;;13.10
19644;BMP180;9970;-36.854;174.870;2022-08-11T01:54:04;101106.00;;;13.10
19644;BMP180;9970;-36.854;174.870;2022-08-11T01:59:36;101105.00;;;13.10
19644;BMP180;9970;-36.854;174.870;2022-08-11T02:05:43;101107.00;;;13.10
19644;BMP180;9970;-36.854;174.870;2022-08-11T02:16:58;101093.00;;;13.00
19644;BMP180;9970;-36.854;174.870;2022-08-11T02:22:57;101085.00;;;13.00
19644;BMP180;9970;-36.854;174.870;2022-08-11T02:45:36;101099.00;;;12.90
19644;BMP180;9970;-36.854;174.870;2022-08-11T02:57:26;101102.00;;;12.90
19644;BMP180;9970;-36.854;174.870;2022-08-11T03:02:55;101102.00;;;12.80
19644;BMP180;9970;-36.854;174.870;2022-08-11T03:05:51;101111.00;;;12.80
19644;BMP180;9970;-36.854;174.870;2022-08-11T03:08:53;101104.00;;;12.80
19644;BMP180;9970;-36.854;174.870;2022-08-11T03:11:59;101105.00;;;12.80
19644;BMP180;9970;-36.854;174.870;2022-08-11T03:20:32;101100.00;;;12.70
19644;BMP180;9970;-36.854;174.870;2022-08-11T03:23:32;101106.00;;;12.80
19644;BMP180;9970;-36.854;174.870;2022-08-11T03:31:33;101116.00;;;12.70
19644;BMP180;9970;-36.854;174.870;2022-08-11T03:34:08;101114.00;;;12.70
19644;BMP180;9970;-36.854;174.870;2022-08-11T03:40:03;101112.00;;;12.70
19644;BMP180;9970;-36.854;174.870;2022-08-11T03:45:32;101118.00;;;12.70
19644;BMP180;9970;-36.854;174.870;2022-08-11T03:51:12;101123.00;;;12.70
19644;BMP180;9970;-36.854;174.870;2022-08-11T04:08:48;101121.00;;;12.50
19644;BMP180;9970;-36.854;174.870;2022-08-11T04:11:43;101117.00;;;12.50
19644;BMP180;9970;-36.854;174.870;2022-08-11T04:14:26;101116.00;;;12.50
19644;BMP180;9970;-36.854;174.870;2022-08-11T04:46:32;101129.00;;;12.30
19644;BMP180;9970;-36.854;174.870;2022-08-11T05:05:14;101146.00;;;12.20
19644;BMP180;9970;-36.854;174.870;2022-08-11T05:08:17;101151.00;;;12.20
19644;BMP180;9970;-36.854;174.870;2022-08-11T05:11:18;101154.00;;;12.20
19644;BMP180;9970;-36.854;174.870;2022-08-11T05:14:00;101161.00;;;12.20
19644;BMP180;9970;-36.854;174.870;2022-08-11T05:16:47;101165.00;;;12.20
19644;BMP180;9970;-36.854;174.870;2022-08-11T05:19:38;101166.00;;;12.20
19644;BMP180;9970;-36.854;174.870;2022-08-11T05:22:32;101166.00;;;12.10
19644;BMP180;9970;-36.854;174.870;2022-08-11T05:25:33;101181.00;;;12.20
19644;BMP180;9970;-36.854;174.870;2022-08-11T05:28:32;101179.00;;;12.20
19644;BMP180;9970;-36.854;174.870;2022-08-11T05:31:38;101182.00;;;12.20
19644;BMP180;9970;-36.854;174.870;2022-08-11T05:34:32;101188.00;;;12.20
19644;BMP180;9970;-36.854;174.870;2022-08-11T05:37:34;101188.00;;;12.10
19644;BMP180;9970;-36.854;174.870;2022-08-11T05:43:00;101194.00;;;12.20
19644;BMP180;9970;-36.854;174.870;2022-08-11T05:45:58;101193.00;;;12.20
19644;BMP180;9970;-36.854;174.870;2022-08-11T05:48:50;101200.00;;;12.20
19644;BMP180;9970;-36.854;174.870;2022-08-11T05:51:44;101204.00;;;12.10
19644;BMP180;9970;-36.854;174.870;2022-08-11T05:54:36;101215.00;;;12.10
19644;BMP180;9970;-36.854;174.870;2022-08-11T05:57:32;101217.00;;;12.10
19644;BMP180;9970;-36.854;174.870;2022-08-11T06:00:08;101210.00;;;12.10
19644;BMP180;9970;-36.854;174.870;2022-08-11T06:02:54;101219.00;;;12.10
19644;BMP180;9970;-36.854;174.870;2022-08-11T06:05:23;101221.00;;;12.10
19644;BMP180;9970;-36.854;174.870;2022-08-11T06:08:08;101225.00;;;12.10
19644;BMP180;9970;-36.854;174.870;2022-08-11T06:10:43;101218.00;;;12.10
19644;BMP180;9970;-36.854;174.870;2022-08-11T06:13:20;101232.00;;;12.10
19644;BMP180;9970;-36.854;174.870;2022-08-11T06:15:55;101238.00;;;12.10
19644;BMP180;9970;-36.854;174.870;2022-08-11T06:18:31;101235.00;;;12.10
19644;BMP180;9970;-36.854;174.870;2022-08-11T06:21:08;101235.00;;;12.10
19644;BMP180;9970;-36.854;174.870;2022-08-11T06:23:41;101236.00;;;12.10
19644;BMP180;9970;-36.854;174.870;2022-08-11T06:26:15;101239.00;;;12.10
19644;BMP180;9970;-36.854;174.870;2022-08-11T06:28:48;101244.00;;;12.10
19644;BMP180;9970;-36.854;174.870;2022-08-11T06:31:28;101245.00;;;12.10
19644;BMP180;9970;-36.854;174.870;2022-08-11T06:34:14;101249.00;;;12.10
19644;BMP180;9970;-36.854;174.870;2022-08-11T06:36:57;101256.00;;;12.00
19644;BMP180;9970;-36.854;174.870;2022-08-11T06:39:50;101243.00;;;12.00
19644;BMP180;9970;-36.854;174.870;2022-08-11T06:48:01;101265.00;;;11.90
19644;BMP180;9970;-36.854;174.870;2022-08-11T06:50:36;101262.00;;;11.90
19644;BMP180;9970;-36.854;174.870;2022-08-11T06:53:31;101270.00;;;11.90
19644;BMP180;9970;-36.854;174.870;2022-08-11T06:56:07;101274.00;;;11.90
19644;BMP180;9970;-36.854;174.870;2022-08-11T06:58:58;101269.00;;;11.90
19644;BMP180;9970;-36.854;174.870;2022-08-11T07:07:46;101278.00;;;11.80
19644;BMP180;9970;-36.854;174.870;2022-08-11T07:13:58;101293.00;;;11.80
19644;BMP180;9970;-36.854;174.870;2022-08-11T07:16:48;101293.00;;;11.70
19644;BMP180;9970;-36.854;174.870;2022-08-11T07:19:23;101302.00;;;11.70
19644;BMP180;9970;-36.854;174.870;2022-08-11T07:22:14;101298.00;;;11.70
19644;BMP180;9970;-36.854;174.870;2022-08-11T07:25:15;101309.00;;;11.70
19644;BMP180;9970;-36.854;174.870;2022-08-11T07:28:20;101309.00;;;11.70
19644;BMP180;9970;-36.854;174.870;2022-08-11T07:31:11;101320.00;;;11.70
19644;BMP180;9970;-36.854;174.870;2022-08-11T07:33:55;101332.00;;;11.70
19644;BMP180;9970;-36.854;174.870;2022-08-11T07:36:24;101326.00;;;11.70
19644;BMP180;9970;-36.854;174.870;2022-08-11T07:39:00;101333.00;;;11.70
19644;BMP180;9970;-36.854;174.870;2022-08-11T07:41:34;101331.00;;;11.70
19644;BMP180;9970;-36.854;174.870;2022-08-11T07:44:07;101335.00;;;11.70
19644;BMP180;9970;-36.854;174.870;2022-08-11T07:46:46;101333.00;;;11.70
19644;BMP180;9970;-36.854;174.870;2022-08-11T07:49:37;101337.00;;;11.70
19644;BMP180;9970;-36.854;174.870;2022-08-11T07:52:29;101338.00;;;11.70
19644;BMP180;9970;-36.854;174.870;2022-08-11T07:55:11;101342.00;;;11.70
19644;BMP180;9970;-36.854;174.870;2022-08-11T07:57:47;101344.00;;;11.70
19644;BMP180;9970;-36.854;174.870;2022-08-11T08:00:52;101346.00;;;11.70
19644;BMP180;9970;-36.854;174.870;2022-08-11T08:03:43;101348.00;;;11.60
19644;BMP180;9970;-36.854;174.870;2022-08-11T08:06:40;101351.00;;;11.60
19644;BMP180;9970;-36.854;174.870;2022-08-11T08:09:32;101349.00;;;11.50
19644;BMP180;9970;-36.854;174.870;2022-08-11T08:12:23;101345.00;;;11.50
19644;BMP180;9970;-36.854;174.870;2022-08-11T08:15:14;101348.00;;;11.50
19644;BMP180;9970;-36.854;174.870;2022-08-11T08:18:09;101350.00;;;11.50
19644;BMP180;9970;-36.854;174.870;2022-08-11T08:20:49;101350.00;;;11.50
19644;BMP180;9970;-36.854;174.870;2022-08-11T08:23:25;101361.00;;;11.50
19644;BMP180;9970;-36.854;174.870;2022-08-11T08:26:06;101367.00;;;11.50
19644;BMP180;9970;-36.854;174.870;2022-08-11T08:28:42;101381.00;;;11.50
19644;BMP180;9970;-36.854;174.870;2022-08-11T08:31:16;101375.00;;;11.50
19644;BMP180;9970;-36.854;174.870;2022-08-11T08:33:50;101383.00;;;11.50
19644;BMP180;9970;-36.854;174.870;2022-08-11T08:36:23;101382.00;;;11.50
19644;BMP180;9970;-36.854;174.870;2022-08-11T08:38:56;101384.00;;;11.50
19644;BMP180;9970;-36.854;174.870;2022-08-11T08:41:31;101377.00;;;11.50
19644;BMP180;9970;-36.854;174.870;2022-08-11T08:44:08;101377.00;;;11.50
19644;BMP180;9970;-36.854;174.870;2022-08-11T08:46:52;101374.00;;;11.50
19644;BMP180;9970;-36.854;174.870;2022-08-11T08:49:58;101378.00;;;11.50
19644;BMP180;9970;-36.854;174.870;2022-08-11T08:52:02;101386.00;;;11.50
19644;BMP180;9970;-36.854;174.870;2022-08-11T08:54:41;101393.00;;;11.50
19644;BMP180;9970;-36.854;174.870;2022-08-11T08:57:18;101400.00;;;11.50
19644;BMP180;9970;-36.854;174.870;2022-08-11T08:59:52;101391.00;;;11.50
19644;BMP180;9970;-36.854;174.870;2022-08-11T09:02:26;101390.00;;;11.50
19644;BMP180;9970;-36.854;174.870;2022-08-11T09:05:01;101396.00;;;11.50
19644;BMP180;9970;-36.854;174.870;2022-08-11T09:07:35;101394.00;;;11.50
19644;BMP180;9970;-36.854;174.870;2022-08-11T09:10:09;101399.00;;;11.50
19644;BMP180;9970;-36.854;174.870;2022-08-11T09:12:43;101394.00;;;11.50
19644;BMP180;9970;-36.854;174.870;2022-08-11T09:15:18;101395.00;;;11.50
19644;BMP180;9970;-36.854;174.870;2022-08-11T09:17:58;101403.00;;;11.50
19644;BMP180;9970;-36.854;174.870;2022-08-11T09:20:37;101393.00;;;11.50
19644;BMP180;9970;-36.854;174.870;2022-08-11T09:23:10;101392.00;;;11.50
19644;BMP180;9970;-36.854;174.870;2022-08-11T09:26:02;101405.00;;;11.50
19644;BMP180;9970;-36.854;174.870;2022-08-11T09:28:54;101395.00;;;11.40
19644;BMP180;9970;-36.854;174.870;2022-08-11T09:31:30;101400.00;;;11.40
19644;BMP180;9970;-36.854;174.870;2022-08-11T09:34:10;101404.00;;;11.40
19644;BMP180;9970;-36.854;174.870;2022-08-11T09:36:49;101404.00;;;11.40
19644;BMP180;9970;-36.854;174.870;2022-08-11T09:39:40;101410.00;;;11.30
19644;BMP180;9970;-36.854;174.870;2022-08-11T09:42:31;101409.00;;;11.30
19644;BMP180;9970;-36.854;174.870;2022-08-11T09:45:26;101400.00;;;11.30
19644;BMP180;9970;-36.854;174.870;2022-08-11T09:48:01;101406.00;;;11.30
19644;BMP180;9970;-36.854;174.870;2022-08-11T09:50:36;101406.00;;;11.30
19644;BMP180;9970;-36.854;174.870;2022-08-11T09:53:11;101410.00;;;11.30
19644;BMP180;9970;-36.854;174.870;2022-08-11T09:55:45;101407.00;;;11.30
19644;BMP180;9970;-36.854;174.870;2022-08-11T09:58:19;101409.00;;;11.30
19644;BMP180;9970;-36.854;174.870;2022-08-11T10:00:55;101412.00;;;11.30
19644;BMP180;9970;-36.854;174.870;2022-08-11T10:03:30;101412.00;;;11.20
19644;BMP180;9970;-36.854;174.870;2022-08-11T10:06:08;101404.00;;;11.20
19644;BMP180;9970;-36.854;174.870;2022-08-11T10:09:01;101411.00;;;11.20
19644;BMP180;9970;-36.854;174.870;2022-08-11T10:11:36;101410.00;;;11.20
19644;BMP180;9970;-36.854;174.870;2022-08-11T10:14:12;101412.00;;;11.20
19644;BMP180;9970;-36.854;174.870;2022-08-11T10:17:08;101417.00;;;11.20
19644;BMP180;9970;-36.854;174.870;2022-08-11T10:19:42;101419.00;;;11.20
19644;BMP180;9970;-36.854;174.870;2022-08-11T10:22:18;101420.00;;;11.20
19644;BMP180;9970;-36.854;174.870;2022-08-11T10:25:01;101430.00;;;11.20
19644;BMP180;9970;-36.854;174.870;2022-08-11T10:27:52;101416.00;;;11.10
19644;BMP180;9970;-36.854;174.870;2022-08-11T10:30:28;101421.00;;;11.10
19644;BMP180;9970;-36.854;174.870;2022-08-11T10:33:24;101409.00;;;11.10
19644;BMP180;9970;-36.854;174.870;2022-08-11T10:36:16;101411.00;;;11.10
19644;BMP180;9970;-36.854;174.870;2022-08-11T10:38:50;101412.00;;;11.10
19644;BMP180;9970;-36.854;174.870;2022-08-11T10:41:23;101405.00;;;11.00
19644;BMP180;9970;-36.854;174.870;2022-08-11T10:44:16;101412.00;;;11.00
19644;BMP180;9970;-36.854;174.870;2022-08-11T10:46:50;101407.00;;;11.00
19644;BMP180;9970;-36.854;174.870;2022-08-11T10:49:42;101417.00;;;11.00
19644;BMP180;9970;-36.854;174.870;2022-08-11T10:52:16;101413.00;;;11.00
19644;BMP180;9970;-36.854;174.870;2022-08-11T10:55:07;101412.00;;;11.00
19644;BMP180;9970;-36.854;174.870;2022-08-11T10:57:58;101409.00;;;11.00
19644;BMP180;9970;-36.854;174.870;2022-08-11T11:00:49;101418.00;;;11.00
19644;BMP180;9970;-36.854;174.870;2022-08-11T11:03:29;101424.00;;;10.90
19644;BMP180;9970;-36.854;174.870;2022-08-11T11:06:08;101436.00;;;10.90
19644;BMP180;9970;-36.854;174.870;2022-08-11T11:08:35;101424.00;;;10.90
19644;BMP180;9970;-36.854;174.870;2022-08-11T11:11:29;101435.00;;;10.90
19644;BMP180;9970;-36.854;174.870;2022-08-11T11:14:21;101436.00;;;10.90
19644;BMP180;9970;-36.854;174.870;2022-08-11T11:17:27;101434.00;;;10.90
19644;BMP180;9970;-36.854;174.870;2022-08-11T11:20:11;101442.00;;;10.90
19644;BMP180;9970;-36.854;174.870;2022-08-11T11:22:46;101438.00;;;10.80
19644;BMP180;9970;-36.854;174.870;2022-08-11T11:25:29;101434.00;;;10.80
19644;BMP180;9970;-36.854;174.870;2022-08-11T11:34:16;101434.00;;;10.80
19644;BMP180;9970;-36.854;174.870;2022-08-11T11:39:24;101430.00;;;10.70
19644;BMP180;9970;-36.854;174.870;2022-08-11T11:41:58;101433.00;;;10.70
19644;BMP180;9970;-36.854;174.870;2022-08-11T11:44:33;101437.00;;;10.70
19644;BMP180;9970;-36.854;174.870;2022-08-11T11:47:07;101436.00;;;10.70
19644;BMP180;9970;-36.854;174.870;2022-08-11T11:49:45;101433.00;;;10.60
19644;BMP180;9970;-36.854;174.870;2022-08-11T11:52:20;101434.00;;;10.60
19644;BMP180;9970;-36.854;174.870;2022-08-11T11:54:54;101444.00;;;10.60
19644;BMP180;9970;-36.854;174.870;2022-08-11T11:57:28;101445.00;;;10.60
19644;BMP180;9970;-36.854;174.870;2022-08-11T12:00:20;101439.00;;;10.50
19644;BMP180;9970;-36.854;174.870;2022-08-11T12:03:11;101434.00;;;10.50
19644;BMP180;9970;-36.854;174.870;2022-08-11T12:05:45;101431.00;;;10.40
19644;BMP180;9970;-36.854;174.870;2022-08-11T12:08:20;101443.00;;;10.40
19644;BMP180;9970;-36.854;174.870;2022-08-11T12:10:59;101441.00;;;10.40
19644;BMP180;9970;-36.854;174.870;2022-08-11T12:13:52;101457.00;;;10.30
19644;BMP180;9970;-36.854;174.870;2022-08-11T12:16:25;101455.00;;;10.30
19644;BMP180;9970;-36.854;174.870;2022-08-11T12:19:01;101462.00;;;10.30
19644;BMP180;9970;-36.854;174.870;2022-08-11T12:21:35;101471.00;;;10.30
19644;BMP180;9970;-36.854;174.870;2022-08-11T12:24:10;101464.00;;;10.30
19644;BMP180;9970;-36.854;174.870;2022-08-11T12:27:01;101462.00;;;10.20
19644;BMP180;9970;-36.854;174.870;2022-08-11T12:29:56;101461.00;;;10.20
19644;BMP180;9970;-36.854;174.870;2022-08-11T12:32:34;101464.00;;;10.20
19644;BMP180;9970;-36.854;174.870;2022-08-11T12:35:08;101461.00;;;10.10
19644;BMP180;9970;-36.854;174.870;2022-08-11T12:37:47;101460.00;;;10.10
19644;BMP180;9970;-36.854;174.870;2022-08-11T12:40:21;101465.00;;;10.10
19644;BMP180;9970;-36.854;174.870;2022-08-11T12:43:13;101467.00;;;10.10
19644;BMP180;9970;-36.854;174.870;2022-08-11T12:46:10;101471.00;;;10.00
19644;BMP180;9970;-36.854;174.870;2022-08-11T12:48:43;101467.00;;;10.00
19644;BMP180;9970;-36.854;174.870;2022-08-11T12:51:40;101470.00;;;9.90
19644;BMP180;9970;-36.854;174.870;2022-08-11T12:57:26;101477.00;;;9.80
19644;BMP180;9970;-36.854;174.870;2022-08-11T13:00:17;101471.00;;;9.80
19644;BMP180;9970;-36.854;174.870;2022-08-11T13:03:09;101479.00;;;9.80
19644;BMP180;9970;-36.854;174.870;2022-08-11T13:06:03;101473.00;;;9.70
19644;BMP180;9970;-36.854;174.870;2022-08-11T13:08:39;101477.00;;;9.70
19644;BMP180;9970;-36.854;174.870;2022-08-11T13:11:15;101476.00;;;9.70
19644;BMP180;9970;-36.854;174.870;2022-08-11T13:14:06;101484.00;;;9.70
19644;BMP180;9970;-36.854;174.870;2022-08-11T13:16:41;101487.00;;;9.70
19644;BMP180;9970;-36.854;174.870;2022-08-11T13:19:33;101481.00;;;9.70
19644;BMP180;9970;-36.854;174.870;2022-08-11T13:22:06;101485.00;;;9.70
19644;BMP180;9970;-36.854;174.870;2022-08-11T13:24:40;101483.00;;;9.60
19644;BMP180;9970;-36.854;174.870;2022-08-11T13:27:14;101489.00;;;9.60
19644;BMP180;9970;-36.854;174.870;2022-08-11T13:29:49;101480.00;;;9.60
19644;BMP180;9970;-36.854;174.870;2022-08-11T13:32:23;101473.00;;;9.60
19644;BMP180;9970;-36.854;174.870;2022-08-11T13:34:59;101483.00;;;9.60
19644;BMP180;9970;-36.854;174.870;2022-08-11T13:37:36;101474.00;;;9.60
19644;BMP180;9970;-36.854;174.870;2022-08-11T13:40:12;101486.00;;;9.60
19644;BMP180;9970;-36.854;174.870;2022-08-11T13:42:47;101479.00;;;9.50
19644;BMP180;9970;-36.854;174.870;2022-08-11T13:45:27;101476.00;;;9.50
19644;BMP180;9970;-36.854;174.870;2022-08-11T13:48:02;101460.00;;;9.50
19644;BMP180;9970;-36.854;174.870;2022-08-11T13:50:36;101468.00;;;9.50
19644;BMP180;9970;-36.854;174.870;2022-08-11T13:53:27;101479.00;;;9.50
19644;BMP180;9970;-36.854;174.870;2022-08-11T13:56:01;101474.00;;;9.40
19644;BMP180;9970;-36.854;174.870;2022-08-11T13:58:34;101479.00;;;9.40
19644;BMP180;9970;-36.854;174.870;2022-08-11T14:01:08;101475.00;;;9.40
19644;BMP180;9970;-36.854;174.870;2022-08-11T14:03:43;101470.00;;;9.30
19644;BMP180;9970;-36.854;174.870;2022-08-11T14:06:18;101463.00;;;9.30
19644;BMP180;9970;-36.854;174.870;2022-08-11T14:08:54;101473.00;;;9.30
19644;BMP180;9970;-36.854;174.870;2022-08-11T14:11:32;101457.00;;;9.30
19644;BMP180;9970;-36.854;174.870;2022-08-11T14:14:26;101452.00;;;9.20
19644;BMP180;9970;-36.854;174.870;2022-08-11T14:17:04;101462.00;;;9.20
19644;BMP180;9970;-36.854;174.870;2022-08-11T14:19:39;101453.00;;;9.20
19644;BMP180;9970;-36.854;174.870;2022-08-11T14:22:14;101447.00;;;9.10
19644;BMP180;9970;-36.854;174.870;2022-08-11T14:24:48;101447.00;;;9.10
19644;BMP180;9970;-36.854;174.870;2022-08-11T14:27:25;101447.00;;;9.10
19644;BMP180;9970;-36.854;174.870;2022-08-11T14:30:05;101445.00;;;9.10
19644;BMP180;9970;-36.854;174.870;2022-08-11T14:32:40;101451.00;;;9.10
19644;BMP180;9970;-36.854;174.870;2022-08-11T14:35:14;101459.00;;;9.00
19644;BMP180;9970;-36.854;174.870;2022-08-11T14:37:47;101462.00;;;9.00
19644;BMP180;9970;-36.854;174.870;2022-08-11T14:40:21;101458.00;;;9.00
19644;BMP180;9970;-36.854;174.870;2022-08-11T14:43:10;101468.00;;;9.00
19644;BMP180;9970;-36.854;174.870;2022-08-11T14:46:07;101464.00;;;8.90
19644;BMP180;9970;-36.854;174.870;2022-08-11T14:48:59;101464.00;;;8.90
19644;BMP180;9970;-36.854;174.870;2022-08-11T14:51:33;101450.00;;;8.90
19644;BMP180;9970;-36.854;174.870;2022-08-11T14:54:05;101454.00;;;8.90
19644;BMP180;9970;-36.854;174.870;2022-08-11T14:56:56;101456.00;;;8.80
19644;BMP180;9970;-36.854;174.870;2022-08-11T14:59:30;101465.00;;;8.80
19644;BMP180;9970;-36.854;174.870;2022-08-11T15:02:04;101462.00;;;8.80
19644;BMP180;9970;-36.854;174.870;2022-08-11T15:05:00;101466.00;;;8.80
19644;BMP180;9970;-36.854;174.870;2022-08-11T15:07:34;101455.00;;;8.70
19644;BMP180;9970;-36.854;174.870;2022-08-11T15:10:11;101454.00;;;8.70
19644;BMP180;9970;-36.854;174.870;2022-08-11T15:12:45;101450.00;;;8.70
19644;BMP180;9970;-36.854;174.870;2022-08-11T15:15:19;101469.00;;;8.70
19644;BMP180;9970;-36.854;174.870;2022-08-11T15:18:10;101466.00;;;8.60
19644;BMP180;9970;-36.854;174.870;2022-08-11T15:20:45;101452.00;;;8.60
19644;BMP180;9970;-36.854;174.870;2022-08-11T15:23:37;101464.00;;;8.60
19644;BMP180;9970;-36.854;174.870;2022-08-11T15:26:29;101464.00;;;8.50
19644;BMP180;9970;-36.854;174.870;2022-08-11T15:29:21;101459.00;;;8.50
19644;BMP180;9970;-36.854;174.870;2022-08-11T15:32:11;101452.00;;;8.50
19644;BMP180;9970;-36.854;174.870;2022-08-11T15:34:56;101457.00;;;8.50
19644;BMP180;9970;-36.854;174.870;2022-08-11T15:37:46;101451.00;;;8.50
19644;BMP180;9970;-36.854;174.870;2022-08-11T15:40:24;101448.00;;;8.50
19644;BMP180;9970;-36.854;174.870;2022-08-11T15:46:48;101458.00;;;8.40
19644;BMP180;9970;-36.854;174.870;2022-08-11T15:49:23;101456.00;;;8.40
19644;BMP180;9970;-36.854;174.870;2022-08-11T15:52:12;101460.00;;;8.40
19644;BMP180;9970;-36.854;174.870;2022-08-11T15:54:42;101455.00;;;8.40
19644;BMP180;9970;-36.854;174.870;2022-08-11T15:57:17;101456.00;;;8.40
19644;BMP180;9970;-36.854;174.870;2022-08-11T16:00:09;101466.00;;;8.30
19644;BMP180;9970;-36.854;174.870;2022-08-11T16:03:01;101468.00;;;8.30
19644;BMP180;9970;-36.854;174.870;2022-08-11T16:05:53;101454.00;;;8.30
19644;BMP180;9970;-36.854;174.870;2022-08-11T16:08:28;101443.00;;;8.30
19644;BMP180;9970;-36.854;174.870;2022-08-11T16:11:03;101453.00;;;8.20
19644;BMP180;9970;-36.854;174.870;2022-08-11T16:13:37;101447.00;;;8.20
19644;BMP180;9970;-36.854;174.870;2022-08-11T16:16:13;101459.00;;;8.30
19644;BMP180;9970;-36.854;174.870;2022-08-11T16:18:52;101454.00;;;8.30
19644;BMP180;9970;-36.854;174.870;2022-08-11T16:21:37;101462.00;;;8.20
19644;BMP180;9970;-36.854;174.870;2022-08-11T16:24:12;101453.00;;;8.20
19644;BMP180;9970;-36.854;174.870;2022-08-11T16:26:48;101454.00;;;8.20
19644;BMP180;9970;-36.854;174.870;2022-08-11T16:29:28;101451.00;;;8.20
19644;BMP180;9970;-36.854;174.870;2022-08-11T16:32:03;101454.00;;;8.20
19644;BMP180;9970;-36.854;174.870;2022-08-11T16:34:57;101446.00;;;8.10
19644;BMP180;9970;-36.854;174.870;2022-08-11T16:37:44;101449.00;;;8.10
19644;BMP180;9970;-36.854;174.870;2022-08-11T16:40:40;101460.00;;;8.00
19644;BMP180;9970;-36.854;174.870;2022-08-11T16:43:18;101452.00;;;8.00
19644;BMP180;9970;-36.854;174.870;2022-08-11T16:46:12;101454.00;;;8.00
19644;BMP180;9970;-36.854;174.870;2022-08-11T16:49:12;101457.00;;;7.90
19644;BMP180;9970;-36.854;174.870;2022-08-11T16:51:45;101459.00;;;7.90
19644;BMP180;9970;-36.854;174.870;2022-08-11T16:54:23;101457.00;;;7.90
19644;BMP180;9970;-36.854;174.870;2022-08-11T16:56:56;101464.00;;;7.90
19644;BMP180;9970;-36.854;174.870;2022-08-11T16:59:36;101464.00;;;8.00
19644;BMP180;9970;-36.854;174.870;2022-08-11T17:02:11;101463.00;;;8.00
19644;BMP180;9970;-36.854;174.870;2022-08-11T17:04:50;101478.00;;;8.00
19644;BMP180;9970;-36.854;174.870;2022-08-11T17:07:42;101474.00;;;8.10
19644;BMP180;9970;-36.854;174.870;2022-08-11T17:10:48;101472.00;;;8.10
19644;BMP180;9970;-36.854;174.870;2022-08-11T17:13:51;101473.00;;;8.10
19644;BMP180;9970;-36.854;174.870;2022-08-11T17:16:23;101476.00;;;8.10
19644;BMP180;9970;-36.854;174.870;2022-08-11T17:19:20;101477.00;;;8.00
19644;BMP180;9970;-36.854;174.870;2022-08-11T17:21:53;101487.00;;;8.00
19644;BMP180;9970;-36.854;174.870;2022-08-11T17:24:47;101485.00;;;8.00
19644;BMP180;9970;-36.854;174.870;2022-08-11T17:27:22;101478.00;;;8.00
19644;BMP180;9970;-36.854;174.870;2022-08-11T17:29:57;101478.00;;;8.10
19644;BMP180;9970;-36.854;174.870;2022-08-11T17:32:42;101486.00;;;8.10
19644;BMP180;9970;-36.854;174.870;2022-08-11T17:35:39;101480.00;;;8.10
19644;BMP180;9970;-36.854;174.870;2022-08-11T17:38:15;101479.00;;;8.00
19644;BMP180;9970;-36.854;174.870;2022-08-11T17:40:53;101492.00;;;8.00
19644;BMP180;9970;-36.854;174.870;2022-08-11T17:43:45;101487.00;;;8.00
19644;BMP180;9970;-36.854;174.870;2022-08-11T17:46:36;101493.00;;;8.00
19644;BMP180;9970;-36.854;174.870;2022-08-11T17:49:30;101497.00;;;8.00
19644;BMP180;9970;-36.854;174.870;2022-08-11T17:52:06;101500.00;;;8.10
19644;BMP180;9970;-36.854;174.870;2022-08-11T17:54:59;101500.00;;;8.10
19644;BMP180;9970;-36.854;174.870;2022-08-11T17:57:51;101505.00;;;8.10
19644;BMP180;9970;-36.854;174.870;2022-08-11T18:00:42;101507.00;;;8.10
19644;BMP180;9970;-36.854;174.870;2022-08-11T18:03:15;101515.00;;;8.10
19644;BMP180;9970;-36.854;174.870;2022-08-11T18:06:02;101527.00;;;8.10
19644;BMP180;9970;-36.854;174.870;2022-08-11T18:08:39;101527.00;;;8.20
19644;BMP180;9970;-36.854;174.870;2022-08-11T18:11:31;101528.00;;;8.20
19644;BMP180;9970;-36.854;174.870;2022-08-11T18:14:24;101520.00;;;8.10
19644;BMP180;9970;-36.854;174.870;2022-08-11T18:17:15;101531.00;;;8.10